CST,Max TemperatureF,Mean TemperatureF,Min TemperatureF,Max Dew PointF,MeanDew PointF,Min DewpointF,Max Humidity, Mean Humidity, Min Humidity, Max Sea Level PressureIn, Mean Sea Level PressureIn, Min Sea Level PressureIn, Max VisibilityMiles, Mean VisibilityMiles, Min VisibilityMiles, Max Wind SpeedMPH, Mean Wind SpeedMPH, Max Gust SpeedMPH,PrecipitationIn, CloudCover, Events, WindDirDegrees
2012-11-1,50,42,33,31,27,23,68,53,42,30.01,29.94,29.90,10,10,10,17,8,24,0.00,4,,328
2012-11-2,44,36,27,26,24,22,80,62,42,30.14,30.09,30.01,10,10,10,8,4,,0.00,2,,19
2012-11-3,46,42,38,30,28,25,66,56,47,30.21,30.18,30.14,10,10,10,7,1,,0.00,8,,130
2012-11-4,48,43,38,36,34,30,84,70,60,30.21,30.18,30.14,10,8,5,9,4,,0.01,7,Rain,151
2012-11-5,50,42,35,35,30,26,75,61,39,30.19,30.13,30.01,10,10,7,9,5,,0.00,6,,135
2012-11-6,46,42,37,41,35,29,87,79,64,29.99,29.86,29.79,10,7,1,20,11,24,0.12,7,Rain,268
2012-11-7,44,42,39,35,32,28,82,70,52,30.11,30.07,29.93,10,10,10,12,7,18,0.00,8,,319
2012-11-8,55,46,36,37,35,31,82,69,50,30.09,30.02,29.95,10,10,10,21,10,28,0.00,1,,176
2012-11-9,52,44,36,40,37,33,86,73,58,30.02,29.97,29.91,10,6,2,14,6,20,0.00,5,,96
2012-11-10,74,61,48,55,49,40,82,69,46,29.91,29.71,29.59,10,7,2,24,15,33,0.00,5,Rain-Thunderstorm,151
2012-11-11,65,46,26,52,34,16,85,73,54,29.96,29.76,29.61,10,8,2,23,15,30,0.41,8,Rain,280
2012-11-12,28,26,23,19,15,13,74,66,56,30.29,30.09,29.97,10,9,0,22,15,30,0.00,6,Snow,272
2012-11-13,42,30,19,26,20,13,77,62,45,30.40,30.35,30.29,10,10,10,13,9,17,0.00,1,,196
2012-11-14,54,46,37,32,29,26,70,57,37,30.32,30.26,30.21,10,10,10,17,11,22,0.00,2,,191
2012-11-15,53,44,35,34,30,22,70,58,46,30.40,30.26,30.18,10,10,10,14,10,,0.00,2,,266
2012-11-16,48,38,27,30,24,16,77,59,42,30.46,30.41,30.36,10,10,7,9,5,,0.00,0,,97
2012-11-17,56,46,35,36,33,30,82,63,43,30.38,30.34,30.29,10,8,4,17,9,23,0.00,0,,171
2012-11-18,58,50,41,33,31,28,67,51,34,30.30,30.21,30.16,10,10,7,21,13,26,0.00,2,,169
2012-11-19,55,50,45,43,40,32,87,68,48,30.17,30.09,30.04,10,9,2,16,11,22,0.00,5,Rain,174
2012-11-20,58,48,37,43,38,32,88,74,49,30.16,30.12,30.06,10,6,0,12,5,,0.00,1,Fog,279
2012-11-21,69,54,40,45,39,34,83,59,31,30.12,29.98,29.85,10,9,4,22,14,31,0.00,0,,195
2012-11-22,65,50,33,42,35,22,73,59,38,29.95,29.78,29.66,10,10,7,31,18,45,0.00,2,,238
2012-11-23,32,26,21,22,14,11,70,61,56,30.30,30.18,29.95,10,9,4,34,24,43,0.00,8,Snow,322
2012-11-24,32,23,14,19,14,10,82,62,42,30.28,30.09,29.80,10,10,10,16,9,21,0.00,6,,216
2012-11-25,39,32,26,22,21,18,73,64,49,30.11,29.93,29.79,10,10,10,16,10,23,0.00,3,,301
2012-11-26,31,23,15,22,9,5,69,57,44,30.38,30.28,30.11,10,10,10,17,11,23,0.00,2,Snow,316
2012-11-27,35,24,13,18,11,5,71,54,36,30.36,30.23,30.14,10,10,10,16,8,24,0.00,2,,217
2012-11-28,36,28,21,25,21,17,86,71,54,30.35,30.25,30.12,10,8,0,15,7,,0.00,2,Fog,243
2012-11-29,48,38,29,30,27,22,80,64,47,30.13,30.05,30.00,10,9,5,15,9,,0.00,0,,143
2012-11-30,39,36,34,35,32,28,87,81,71,30.14,30.09,30.02,10,4,2,14,7,17,0.00,7,,94